Terminal Aerodrome Forecast
Issued by NWS Memphis, TN

Home | Current Version | Previous Version | Text Only | Print | Product List | Glossary On
Versions: 1 2 3 4 5 6 7 8 9 10 11 12 13 14 15 16
983
FTUS44 KMEG 172320
TAFMKL
TAF
KMKL 172320Z 1800/1824 24005KT P6SM FEW060 SCT100 BKN250
     FM180900 VRB03KT P6SM FEW250
      TEMPO 1809/1812 5SM BR
     FM181500 27006KT P6SM FEW060=

USA.gov is the U.S. government's official web portal to all federal, state and local government web resources and services.